Time;durP1;ratioP1;P1;durP2;ratioP2;P2;SDS_P1;SDS_P2;PMS_P1;PMS_P2;Temp;Humidity;BMP_temperature;BMP_pressure;BME280_temperature;BME280_humidity;BME280_pressure;Samples;Min_cycle;Max_cycle;Signal;HPM_P1;HPM_P2
2022/05/08 00:01:38;;;;;;;;;;;;;;;;;;4710669;30;20020;-85
2022/05/08 00:04:04;;;;;;;;;;;;;;;;;;4711566;30;19996;-85
2022/05/08 00:06:30;;;;;;;;;;;;;;;;;;4716441;30;19926;-85
2022/05/08 00:08:56;;;;;;;;;;;;;;;;;;4712340;30;19934;-85
2022/05/08 00:11:22;;;;;;;;;;;;;;;;;;4711361;30;19934;-85
2022/05/08 00:13:48;;;;;;;;;;;;;;;;;;4726995;30;20725;-85
2022/05/08 00:16:14;;;;;;;;;;;;;;;;;;4695152;30;20443;-85
2022/05/08 00:18:40;;;;;;;;;;;;;;;;;;4726634;30;19926;-85
2022/05/08 00:21:06;;;;;;;;;;;;;;;;;;4719115;30;19930;-85
2022/05/08 00:23:32;;;;;;;;;;;;;;;;;;4719654;30;20027;-85
2022/05/08 00:25:58;;;;;;;;;;;;;;;;;;4716855;30;19949;-85
2022/05/08 00:28:24;;;;;;;;;;;;;;;;;;4708295;30;20801;-85
2022/05/08 00:30:50;;;;;;;;;;;;;;;;;;4725963;30;19934;-85
2022/05/08 00:33:16;;;;;;;;;;;;;;;;;;4696379;30;19926;-85
2022/05/08 00:35:42;;;;;;;;;;;;;;;;;;4710246;30;19933;-85
2022/05/08 00:38:08;;;;;;;;;;;;;;;;;;4705838;30;19968;-85
2022/05/08 00:40:35;;;;;;;;;;;;;;;;;;4696284;30;19931;-85
2022/05/08 00:43:04;;;;;;;;;;;;;;;;;;4727550;30;19934;-85
2022/05/08 00:45:30;;;;;;;;;;;;;;;;;;4730097;30;19930;-85
2022/05/08 00:47:56;;;;;;;;;;;;;;;;;;4729283;30;19941;-86
2022/05/08 00:50:22;;;;;;;;;;;;;;;;;;4711770;30;23484;-85
2022/05/08 00:52:48;;;;;;;;;;;;;;;;;;4731434;30;19932;-85
2022/05/08 00:55:14;;;;;;;;;;;;;;;;;;4724862;30;20294;-86
2022/05/08 00:57:42;;;;;;;;;;;;;;;;;;4731476;30;19930;-86
2022/05/08 01:00:08;;;;;;;;;;;;;;;;;;4729099;30;19961;-86
2022/05/08 01:02:35;;;;;;;;;;;;;;;;;;4732839;30;19937;-85
2022/05/08 01:05:04;;;;;;;;;;;;;;;;;;4730943;30;20487;-85
2022/05/08 01:07:29;;;;;;;;;;;;;;;;;;4732948;30;20017;-85
2022/05/08 01:09:56;;;;;;;;;;;;;;;;;;4714643;30;20021;-85
2022/05/08 01:12:21;;;;;;;;;;;;;;;;;;4714686;30;19999;-85
2022/05/08 01:14:47;;;;;;;;;;;;;;;;;;4715464;30;20432;-85
2022/05/08 01:17:13;;;;;;;;;;;;;;;;;;4714837;30;20764;-85
2022/05/08 01:19:39;;;;;;;;;;;;;;;;;;4714280;30;20415;-85
2022/05/08 01:22:05;;;;;;;;;;;;;;;;;;4709639;30;23295;-85
2022/05/08 01:24:31;;;;;;;;;;;;;;;;;;4714923;30;20682;-85
2022/05/08 01:26:57;;;;;;;;;;;;;;;;;;4716280;30;19937;-85
2022/05/08 01:29:23;;;;;;;;;;;;;;;;;;4700572;30;21242;-85
2022/05/08 01:31:49;;;;;;;;;;;;;;;;;;4716111;30;20636;-85
2022/05/08 01:34:15;;;;;;;;;;;;;;;;;;4699535;30;20039;-85
2022/05/08 01:36:41;;;;;;;;;;;;;;;;;;4704643;30;19969;-85
2022/05/08 01:39:07;;;;;;;;;;;;;;;;;;4710861;30;19934;-86
2022/05/08 01:41:33;;;;;;;;;;;;;;;;;;4716400;30;19926;-85
2022/05/08 01:43:59;;;;;;;;;;;;;;;;;;4705873;30;20010;-85
2022/05/08 01:46:25;;;;;;;;;;;;;;;;;;4697151;30;19933;-85
2022/05/08 01:48:51;;;;;;;;;;;;;;;;;;4717051;30;19926;-85
2022/05/08 01:51:17;;;;;;;;;;;;;;;;;;4697435;30;19934;-85
2022/05/08 01:53:44;;;;;;;;;;;;;;;;;;4705083;30;20345;-85
2022/05/08 01:56:09;;;;;;;;;;;;;;;;;;4739821;30;20028;-85
2022/05/08 01:58:36;;;;;;;;;;;;;;;;;;4716724;30;20260;-85
2022/05/08 02:01:02;;;;;;;;;;;;;;;;;;4730741;30;19976;-85
2022/05/08 02:03:28;;;;;;;;;;;;;;;;;;4730172;30;20349;-85
2022/05/08 02:05:53;;;;;;;;;;;;;;;;;;4717883;30;19934;-85
2022/05/08 02:08:19;;;;;;;;;;;;;;;;;;4728745;30;19934;-85
2022/05/08 02:10:45;;;;;;;;;;;;;;;;;;4720252;30;20373;-85
2022/05/08 02:13:11;;;;;;;;;;;;;;;;;;4720523;30;20293;-85
2022/05/08 02:15:37;;;;;;;;;;;;;;;;;;4718761;30;20012;-85
2022/05/08 02:18:03;;;;;;;;;;;;;;;;;;4724147;30;19933;-85
2022/05/08 02:20:29;;;;;;;;;;;;;;;;;;4702840;30;20709;-85
2022/05/08 02:22:55;;;;;;;;;;;;;;;;;;4722797;30;19930;-85
2022/05/08 02:25:21;;;;;;;;;;;;;;;;;;4699232;30;19945;-85
2022/05/08 02:27:51;;;;;;;;;;;;;;;;;;4702191;30;20019;-85
2022/05/08 02:30:17;;;;;;;;;;;;;;;;;;4693433;30;19979;-85
2022/05/08 02:32:43;;;;;;;;;;;;;;;;;;4719064;30;20079;-85
2022/05/08 02:35:09;;;;;;;;;;;;;;;;;;4715985;30;19930;-86
2022/05/08 02:37:35;;;;;;;;;;;;;;;;;;4732816;30;19957;-85
2022/05/08 02:40:01;;;;;;;;;;;;;;;;;;4709336;30;20302;-85
2022/05/08 02:42:27;;;;;;;;;;;;;;;;;;4718195;30;20336;-85
2022/05/08 02:44:53;;;;;;;;;;;;;;;;;;4702454;30;19934;-85
2022/05/08 02:47:19;;;;;;;;;;;;;;;;;;4712937;30;19973;-85
2022/05/08 02:49:45;;;;;;;;;;;;;;;;;;4721353;30;19946;-85
2022/05/08 02:52:11;;;;;;;;;;;;;;;;;;4717481;30;20341;-85
2022/05/08 02:54:37;;;;;;;;;;;;;;;;;;4708807;30;20358;-85
2022/05/08 02:59:48;;;;;;;;;;;;;;;;;;4719521;30;20468;-85
2022/05/08 03:02:14;;;;;;;;;;;;;;;;;;4717774;30;19930;-85
2022/05/08 03:04:41;;;;;;;;;;;;;;;;;;4721335;30;19930;-85
2022/05/08 03:07:07;;;;;;;;;;;;;;;;;;4713512;30;19933;-85
2022/05/08 03:09:33;;;;;;;;;;;;;;;;;;4700680;30;19927;-85
2022/05/08 03:11:59;;;;;;;;;;;;;;;;;;4713233;30;19964;-85
2022/05/08 03:14:25;;;;;;;;;;;;;;;;;;4708800;30;19969;-85
2022/05/08 03:16:51;;;;;;;;;;;;;;;;;;4712553;30;19988;-85
2022/05/08 03:19:19;;;;;;;;;;;;;;;;;;4694881;30;20007;-85
2022/05/08 03:21:48;;;;;;;;;;;;;;;;;;4714145;30;19934;-85
2022/05/08 03:24:14;;;;;;;;;;;;;;;;;;4696131;30;19931;-85
2022/05/08 03:26:40;;;;;;;;;;;;;;;;;;4709931;30;19935;-85
2022/05/08 03:29:07;;;;;;;;;;;;;;;;;;4691034;30;19934;-84
2022/05/08 03:31:33;;;;;;;;;;;;;;;;;;4697721;30;19977;-85
2022/05/08 03:33:59;;;;;;;;;;;;;;;;;;4726306;30;20128;-85
2022/05/08 03:36:25;;;;;;;;;;;;;;;;;;4737379;30;19934;-85
2022/05/08 03:38:51;;;;;;;;;;;;;;;;;;4724006;30;19934;-85
2022/05/08 03:41:17;;;;;;;;;;;;;;;;;;4693777;30;19934;-85
2022/05/08 03:43:44;;;;;;;;;;;;;;;;;;4717066;30;19934;-85
2022/05/08 03:46:09;;;;;;;;;;;;;;;;;;4725682;30;19935;-85
2022/05/08 03:48:36;;;;;;;;;;;;;;;;;;4714175;30;19934;-86
2022/05/08 03:51:02;;;;;;;;;;;;;;;;;;4702239;30;19934;-85
2022/05/08 03:53:28;;;;;;;;;;;;;;;;;;4699904;30;19930;-85
2022/05/08 03:55:54;;;;;;;;;;;;;;;;;;4698346;30;19930;-85
2022/05/08 03:58:20;;;;;;;;;;;;;;;;;;4707870;30;20040;-85
2022/05/08 04:00:46;;;;;;;;;;;;;;;;;;4698461;30;19930;-85
2022/05/08 04:03:12;;;;;;;;;;;;;;;;;;4725987;30;20299;-85
2022/05/08 04:05:38;;;;;;;;;;;;;;;;;;4716045;30;20402;-85
2022/05/08 04:08:03;;;;;;;;;;;;;;;;;;4711449;30;19934;-85
2022/05/08 04:10:29;;;;;;;;;;;;;;;;;;4729280;30;20017;-85
2022/05/08 04:12:55;;;;;;;;;;;;;;;;;;4713489;30;19981;-85
2022/05/08 04:18:07;;;;;;;;;;;;;;;;;;4714249;30;19960;-85
2022/05/08 04:20:33;;;;;;;;;;;;;;;;;;4716184;30;19930;-85
2022/05/08 04:25:44;;;;;;;;;;;;;;;;;;4732145;30;19942;-85
2022/05/08 04:28:11;;;;;;;;;;;;;;;;;;4710862;30;21679;-85
2022/05/08 04:30:37;;;;;;;;;;;;;;;;;;4704040;30;19926;-85
2022/05/08 04:33:03;;;;;;;;;;;;;;;;;;4714723;30;19926;-85
2022/05/08 04:35:29;;;;;;;;;;;;;;;;;;4698600;30;19933;-85
2022/05/08 04:37:55;;;;;;;;;;;;;;;;;;4698904;30;19942;-85
2022/05/08 04:40:21;;;;;;;;;;;;;;;;;;4692973;30;19934;-85
2022/05/08 04:42:47;;;;;;;;;;;;;;;;;;4730289;30;20024;-85
2022/05/08 04:45:13;;;;;;;;;;;;;;;;;;4717442;30;19976;-85
2022/05/08 04:47:39;;;;;;;;;;;;;;;;;;4710012;30;21332;-85
2022/05/08 04:50:05;;;;;;;;;;;;;;;;;;4690156;30;19930;-85
2022/05/08 04:52:31;;;;;;;;;;;;;;;;;;4697741;30;19950;-86
2022/05/08 04:54:57;;;;;;;;;;;;;;;;;;4708634;30;19930;-85
2022/05/08 04:57:22;;;;;;;;;;;;;;;;;;4708904;30;20388;-85
2022/05/08 04:59:48;;;;;;;;;;;;;;;;;;4713708;30;19934;-85
2022/05/08 05:02:14;;;;;;;;;;;;;;;;;;4706279;30;19941;-85
2022/05/08 05:04:40;;;;;;;;;;;;;;;;;;4713641;30;19961;-85
2022/05/08 05:07:07;;;;;;;;;;;;;;;;;;4710122;30;19965;-85
2022/05/08 05:09:33;;;;;;;;;;;;;;;;;;4727043;30;19930;-85
2022/05/08 05:11:59;;;;;;;;;;;;;;;;;;4701324;30;20396;-85
2022/05/08 05:14:25;;;;;;;;;;;;;;;;;;4719091;30;20282;-85
2022/05/08 05:16:51;;;;;;;;;;;;;;;;;;4719964;30;19930;-85
2022/05/08 05:19:17;;;;;;;;;;;;;;;;;;4720119;30;19934;-85
2022/05/08 05:21:43;;;;;;;;;;;;;;;;;;4707661;30;19941;-85
2022/05/08 05:24:09;;;;;;;;;;;;;;;;;;4719988;30;20335;-85
2022/05/08 05:26:35;;;;;;;;;;;;;;;;;;4707344;30;20382;-85
2022/05/08 05:29:04;;;;;;;;;;;;;;;;;;4722474;30;19927;-85
2022/05/08 05:31:30;;;;;;;;;;;;;;;;;;4697690;30;19934;-86
2022/05/08 05:33:56;;;;;;;;;;;;;;;;;;4713870;30;20000;-85
2022/05/08 05:36:22;;;;;;;;;;;;;;;;;;4703644;30;19942;-85
2022/05/08 05:38:47;;;;;;;;;;;;;;;;;;4719222;30;19934;-85
2022/05/08 05:41:13;;;;;;;;;;;;;;;;;;4698154;30;19930;-85
2022/05/08 05:43:39;;;;;;;;;;;;;;;;;;4717758;30;19937;-85
2022/05/08 05:48:50;;;;;;;;;;;;;;;;;;4711817;30;19988;-86
2022/05/08 05:51:16;;;;;;;;;;;;;;;;;;4703748;30;20370;-86
2022/05/08 05:53:42;;;;;;;;;;;;;;;;;;4712661;30;19987;-86
2022/05/08 05:56:09;;;;;;;;;;;;;;;;;;4709150;30;19984;-87
2022/05/08 05:58:35;;;;;;;;;;;;;;;;;;4710523;30;20009;-86
2022/05/08 06:01:01;;;;;;;;;;;;;;;;;;4708335;30;20336;-87
2022/05/08 06:03:27;;;;;;;;;;;;;;;;;;4702852;30;19931;-87
2022/05/08 06:05:53;;;;;;;;;;;;;;;;;;4726106;30;19984;-86
2022/05/08 06:08:19;;;;;;;;;;;;;;;;;;4709266;30;19938;-87
2022/05/08 06:10:45;;;;;;;;;;;;;;;;;;4711995;30;19944;-87
2022/05/08 06:13:12;;;;;;;;;;;;;;;;;;4705343;30;19938;-87
2022/05/08 06:15:38;;;;;;;;;;;;;;;;;;4726015;30;19926;-86
2022/05/08 06:18:04;;;;;;;;;;;;;;;;;;4708915;30;19945;-86
2022/05/08 06:20:32;;;;;;;;;;;;;;;;;;4726773;30;19982;-86
2022/05/08 06:22:58;;;;;;;;;;;;;;;;;;4701522;30;22781;-86
2022/05/08 06:25:24;;;;;;;;;;;;;;;;;;4706740;30;19938;-86
2022/05/08 06:27:50;;;;;;;;;;;;;;;;;;4713881;30;19973;-85
2022/05/08 06:30:16;;;;;;;;;;;;;;;;;;4690550;30;20330;-86
2022/05/08 06:32:42;;;;;;;;;;;;;;;;;;4708396;30;19934;-86
2022/05/08 06:35:08;;;;;;;;;;;;;;;;;;4707685;30;19935;-86
2022/05/08 06:37:34;;;;;;;;;;;;;;;;;;4694824;30;19995;-86
2022/05/08 06:40:00;;;;;;;;;;;;;;;;;;4700310;30;19934;-86
2022/05/08 06:42:26;;;;;;;;;;;;;;;;;;4692557;30;20375;-86
2022/05/08 06:44:52;;;;;;;;;;;;;;;;;;4698173;30;20441;-86
2022/05/08 06:47:18;;;;;;;;;;;;;;;;;;4708433;30;19934;-86
2022/05/08 06:49:44;;;;;;;;;;;;;;;;;;4711435;30;19995;-86
2022/05/08 06:52:10;;;;;;;;;;;;;;;;;;4702990;30;19940;-86
2022/05/08 06:54:36;;;;;;;;;;;;;;;;;;4694255;30;19965;-86
2022/05/08 06:57:02;;;;;;;;;;;;;;;;;;4709329;30;19934;-87
2022/05/08 07:02:15;;;;;;;;;;;;;;;;;;4708342;30;19975;-86
2022/05/08 07:04:41;;;;;;;;;;;;;;;;;;4725238;30;19949;-86
2022/05/08 07:07:07;;;;;;;;;;;;;;;;;;4710021;30;19957;-86
2022/05/08 07:09:35;;;;;;;;;;;;;;;;;;4708887;30;19926;-86
2022/05/08 07:12:01;;;;;;;;;;;;;;;;;;4708937;30;19992;-86
2022/05/08 07:14:27;;;;;;;;;;;;;;;;;;4706855;30;19999;-86
2022/05/08 07:16:53;;;;;;;;;;;;;;;;;;4708247;30;20670;-86
2022/05/08 07:19:19;;;;;;;;;;;;;;;;;;4718317;30;20310;-86
2022/05/08 07:21:45;;;;;;;;;;;;;;;;;;4713223;30;19930;-86
2022/05/08 07:24:12;;;;;;;;;;;;;;;;;;4717610;30;19951;-86
2022/05/08 07:26:39;;;;;;;;;;;;;;;;;;4739773;30;19930;-86
2022/05/08 07:29:07;;;;;;;;;;;;;;;;;;4704624;30;20764;-86
2022/05/08 07:31:32;;;;;;;;;;;;;;;;;;4708384;30;20032;-87
2022/05/08 07:36:43;;;;;;;;;;;;;;;;;;4712729;30;19931;-86
2022/05/08 07:39:11;;;;;;;;;;;;;;;;;;4701541;30;19934;-87
2022/05/08 07:41:38;;;;;;;;;;;;;;;;;;4697655;30;19941;-87
2022/05/08 07:44:05;;;;;;;;;;;;;;;;;;4695658;30;19934;-86
2022/05/08 07:46:31;;;;;;;;;;;;;;;;;;4710860;30;20395;-86
2022/05/08 07:48:57;;;;;;;;;;;;;;;;;;4696634;30;19947;-86
2022/05/08 07:51:24;;;;;;;;;;;;;;;;;;4694794;30;20068;-86
2022/05/08 07:53:51;;;;;;;;;;;;;;;;;;4696828;30;19926;-86
2022/05/08 07:56:17;;;;;;;;;;;;;;;;;;4697654;30;19934;-86
2022/05/08 07:58:43;;;;;;;;;;;;;;;;;;4714531;30;19951;-86
2022/05/08 08:01:10;;;;;;;;;;;;;;;;;;4713996;30;20030;-86
2022/05/08 08:03:36;;;;;;;;;;;;;;;;;;4725824;30;19926;-87
2022/05/08 08:06:02;;;;;;;;;;;;;;;;;;4713080;30;19934;-87
2022/05/08 08:08:28;;;;;;;;;;;;;;;;;;4731438;30;19934;-87
2022/05/08 08:10:58;;;;;;;;;;;;;;;;;;4733588;29;20283;-86
2022/05/08 08:13:24;;;;;;;;;;;;;;;;;;4726756;30;19934;-87
2022/05/08 08:15:50;;;;;;;;;;;;;;;;;;4730485;30;20394;-87
2022/05/08 08:18:18;;;;;;;;;;;;;;;;;;4697884;30;19939;-87
2022/05/08 08:20:44;;;;;;;;;;;;;;;;;;4700175;30;19934;-87
2022/05/08 08:23:11;;;;;;;;;;;;;;;;;;4699137;30;20754;-87
2022/05/08 08:25:37;;;;;;;;;;;;;;;;;;4712941;30;19938;-86
2022/05/08 08:28:03;;;;;;;;;;;;;;;;;;4733811;30;19937;-86
2022/05/08 08:30:29;;;;;;;;;;;;;;;;;;4700493;30;20333;-87
2022/05/08 08:32:55;;;;;;;;;;;;;;;;;;4724039;30;19995;-86
2022/05/08 08:35:21;;;;;;;;;;;;;;;;;;4720190;30;19940;-87
2022/05/08 08:37:47;;;;;;;;;;;;;;;;;;4721683;30;20410;-87
2022/05/08 08:40:13;;;;;;;;;;;;;;;;;;4706626;30;19966;-86
2022/05/08 08:42:39;;;;;;;;;;;;;;;;;;4706923;30;19981;-87
2022/05/08 08:47:50;;;;;;;;;;;;;;;;;;4718749;30;20893;-87
2022/05/08 08:50:17;;;;;;;;;;;;;;;;;;4714427;30;19934;-87
2022/05/08 08:52:43;;;;;;;;;;;;;;;;;;4725014;30;20455;-87
2022/05/08 08:55:09;;;;;;;;;;;;;;;;;;4727593;30;20022;-87
2022/05/08 08:57:35;;;;;;;;;;;;;;;;;;4710423;30;19938;-87
2022/05/08 09:00:01;;;;;;;;;;;;;;;;;;4707424;30;19957;-86
2022/05/08 09:02:27;;;;;;;;;;;;;;;;;;4701817;30;19951;-87
2022/05/08 09:04:54;;;;;;;;;;;;;;;;;;4716315;30;20425;-87
2022/05/08 09:07:20;;;;;;;;;;;;;;;;;;4703550;30;19930;-87
2022/05/08 09:09:46;;;;;;;;;;;;;;;;;;4698635;30;19934;-87
2022/05/08 09:12:12;;;;;;;;;;;;;;;;;;4704473;30;19934;-86
2022/05/08 09:14:38;;;;;;;;;;;;;;;;;;4712734;30;19931;-87
2022/05/08 09:17:04;;;;;;;;;;;;;;;;;;4705261;30;19999;-87
2022/05/08 09:19:31;;;;;;;;;;;;;;;;;;4697651;30;19933;-87
2022/05/08 09:22:00;;;;;;;;;;;;;;;;;;4709707;30;19934;-87
2022/05/08 09:24:26;;;;;;;;;;;;;;;;;;4709946;30;19934;-86
2022/05/08 09:26:52;;;;;;;;;;;;;;;;;;4702354;30;19926;-87
2022/05/08 09:29:18;;;;;;;;;;;;;;;;;;4710147;30;20455;-86
2022/05/08 09:31:44;;;;;;;;;;;;;;;;;;4714416;30;19930;-86
2022/05/08 09:34:10;;;;;;;;;;;;;;;;;;4713616;30;19932;-86
2022/05/08 09:36:37;;;;;;;;;;;;;;;;;;4704036;30;20033;-86
2022/05/08 09:39:03;;;;;;;;;;;;;;;;;;4712105;30;19934;-87
2022/05/08 09:41:29;;;;;;;;;;;;;;;;;;4716381;30;19992;-87
2022/05/08 09:43:55;;;;;;;;;;;;;;;;;;4727665;30;19934;-86
2022/05/08 09:46:21;;;;;;;;;;;;;;;;;;4733426;30;19933;-86
2022/05/08 09:48:47;;;;;;;;;;;;;;;;;;4718708;30;19934;-87
2022/05/08 09:51:15;;;;;;;;;;;;;;;;;;4711179;30;19934;-86
2022/05/08 09:53:41;;;;;;;;;;;;;;;;;;4700264;30;19936;-86
2022/05/08 09:56:07;;;;;;;;;;;;;;;;;;4711290;30;19934;-86
2022/05/08 09:58:34;;;;;;;;;;;;;;;;;;4725505;30;19926;-87
2022/05/08 10:01:00;;;;;;;;;;;;;;;;;;4703839;30;24506;-87
2022/05/08 10:03:26;;;;;;;;;;;;;;;;;;4688975;30;21492;-87
2022/05/08 10:05:52;;;;;;;;;;;;;;;;;;4712575;30;20017;-86
2022/05/08 10:08:18;;;;;;;;;;;;;;;;;;4709442;30;19926;-86
2022/05/08 10:16:14;;;;;;;;;;;;;;;;;;4715629;30;20024;-87
2022/05/08 10:18:40;;;;;;;;;;;;;;;;;;4703227;30;20024;-86
2022/05/08 10:21:07;;;;;;;;;;;;;;;;;;4709996;30;19927;-87
2022/05/08 10:23:32;;;;;;;;;;;;;;;;;;4699415;30;20241;-87
2022/05/08 10:26:00;;;;;;;;;;;;;;;;;;4701286;30;20758;-87
2022/05/08 10:28:27;;;;;;;;;;;;;;;;;;4719799;30;20209;-85
2022/05/08 10:30:53;;;;;;;;;;;;;;;;;;4708651;30;20402;-85
2022/05/08 10:33:19;;;;;;;;;;;;;;;;;;4708025;30;19934;-85
2022/05/08 10:35:44;;;;;;;;;;;;;;;;;;4712335;30;19935;-85
2022/05/08 10:38:12;;;;;;;;;;;;;;;;;;4725852;30;19934;-86
2022/05/08 10:40:39;;;;;;;;;;;;;;;;;;4716800;30;20081;-86
2022/05/08 10:43:05;;;;;;;;;;;;;;;;;;4731095;30;19930;-87
2022/05/08 10:45:36;;;;;;;;;;;;;;;;;;4727819;30;19926;-87
2022/05/08 10:48:04;;;;;;;;;;;;;;;;;;4729098;30;19968;-87
2022/05/08 10:50:30;;;;;;;;;;;;;;;;;;4716155;30;20726;-88
2022/05/08 10:52:57;;;;;;;;;;;;;;;;;;4701525;30;19930;-88
2022/05/08 10:55:23;;;;;;;;;;;;;;;;;;4709769;30;19938;-88
2022/05/08 10:57:49;;;;;;;;;;;;;;;;;;4731742;30;20007;-88
2022/05/08 11:00:15;;;;;;;;;;;;;;;;;;4698332;30;20742;-88
2022/05/08 11:02:41;;;;;;;;;;;;;;;;;;4713401;30;19926;-79
2022/05/08 11:05:07;;;;;;;;;;;;;;;;;;4724536;30;19926;-79
2022/05/08 11:07:33;;;;;;;;;;;;;;;;;;4730609;30;19930;-79
2022/05/08 11:09:59;;;;;;;;;;;;;;;;;;4719380;30;19941;-79
2022/05/08 11:12:25;;;;;;;;;;;;;;;;;;4722981;30;19938;-79
2022/05/08 11:14:55;;;;;;;;;;;;;;;;;;4708036;30;19927;-78
2022/05/08 11:17:21;;;;;;;;;;;;;;;;;;4717964;30;20002;-79
2022/05/08 11:19:47;;;;;;;;;;;;;;;;;;4722959;30;19930;-79
2022/05/08 11:22:13;;;;;;;;;;;;;;;;;;4725547;30;19937;-79
2022/05/08 11:24:39;;;;;;;;;;;;;;;;;;4723591;30;19936;-79
2022/05/08 11:27:05;;;;;;;;;;;;;;;;;;4704516;30;19977;-79
2022/05/08 11:29:31;;;;;;;;;;;;;;;;;;4709420;30;20366;-79
2022/05/08 11:37:37;;;;;;;;;;;;;;;;;;4711047;30;20404;-79
2022/05/08 11:40:03;;;;;;;;;;;;;;;;;;4730012;29;19962;-79
2022/05/08 11:42:29;;;;;;;;;;;;;;;;;;4721196;30;19985;-79
2022/05/08 11:44:55;;;;;;;;;;;;;;;;;;4712874;30;20289;-79
2022/05/08 11:47:21;;;;;;;;;;;;;;;;;;4715808;30;19941;-80
2022/05/08 11:49:48;;;;;;;;;;;;;;;;;;4731124;30;19937;-78
2022/05/08 11:52:14;;;;;;;;;;;;;;;;;;4703843;30;19926;-78
2022/05/08 11:54:40;;;;;;;;;;;;;;;;;;4732176;30;19933;-78
2022/05/08 11:57:07;;;;;;;;;;;;;;;;;;4733757;30;19941;-79
2022/05/08 11:59:33;;;;;;;;;;;;;;;;;;4738441;30;20318;-79
2022/05/08 12:01:59;;;;;;;;;;;;;;;;;;4732664;30;19941;-79
2022/05/08 12:04:26;;;;;;;;;;;;;;;;;;4725076;30;19956;-79
2022/05/08 12:06:53;;;;;;;;;;;;;;;;;;4710325;30;19934;-79
2022/05/08 12:09:18;;;;;;;;;;;;;;;;;;4723308;30;19934;-79
2022/05/08 12:11:44;;;;;;;;;;;;;;;;;;4726231;30;20033;-79
2022/05/08 12:14:10;;;;;;;;;;;;;;;;;;4721043;30;19933;-79
2022/05/08 12:16:37;;;;;;;;;;;;;;;;;;4728325;30;19934;-79
2022/05/08 12:19:03;;;;;;;;;;;;;;;;;;4723156;30;19927;-79
2022/05/08 12:21:29;;;;;;;;;;;;;;;;;;4731467;30;19930;-79
2022/05/08 12:23:56;;;;;;;;;;;;;;;;;;4729271;30;19940;-79
2022/05/08 12:26:24;;;;;;;;;;;;;;;;;;4699153;30;19978;-80
2022/05/08 12:28:50;;;;;;;;;;;;;;;;;;4708739;30;20315;-79
2022/05/08 12:31:16;;;;;;;;;;;;;;;;;;4696113;30;19930;-79
2022/05/08 12:33:44;;;;;;;;;;;;;;;;;;4688873;30;20989;-79
2022/05/08 12:36:10;;;;;;;;;;;;;;;;;;4704839;30;19992;-78
2022/05/08 12:38:36;;;;;;;;;;;;;;;;;;4710650;30;20349;-78
2022/05/08 12:41:01;;;;;;;;;;;;;;;;;;4710520;30;20404;-79
2022/05/08 12:43:27;;;;;;;;;;;;;;;;;;4694156;30;19941;-79
2022/05/08 12:45:53;;;;;;;;;;;;;;;;;;4691464;30;19945;-78
2022/05/08 12:48:21;;;;;;;;;;;;;;;;;;4708390;30;19934;-79
2022/05/08 12:50:48;;;;;;;;;;;;;;;;;;4695099;30;19942;-78
2022/05/08 12:53:14;;;;;;;;;;;;;;;;;;4686725;30;20395;-79
2022/05/08 12:55:40;;;;;;;;;;;;;;;;;;4697682;30;19956;-79
2022/05/08 13:00:51;;;;;;;;;;;;;;;;;;4710135;30;19927;-79
2022/05/08 13:03:17;;;;;;;;;;;;;;;;;;4702163;30;20473;-79
2022/05/08 13:05:42;;;;;;;;;;;;;;;;;;4696967;30;19931;-79
2022/05/08 13:08:08;;;;;;;;;;;;;;;;;;4706441;30;19931;-79
2022/05/08 13:10:35;;;;;;;;;;;;;;;;;;4712082;30;20013;-79
2022/05/08 13:13:01;;;;;;;;;;;;;;;;;;4694222;30;19934;-79
2022/05/08 13:15:27;;;;;;;;;;;;;;;;;;4678595;30;19936;-81
2022/05/08 13:17:54;;;;;;;;;;;;;;;;;;4714992;30;19934;-79
2022/05/08 13:20:20;;;;;;;;;;;;;;;;;;4688499;30;20284;-79
2022/05/08 13:22:46;;;;;;;;;;;;;;;;;;4712673;30;19937;-79
2022/05/08 13:25:12;;;;;;;;;;;;;;;;;;4696895;30;19938;-79
2022/05/08 13:27:38;;;;;;;;;;;;;;;;;;4709147;30;19953;-79
2022/05/08 13:30:04;;;;;;;;;;;;;;;;;;4724433;30;20020;-79
2022/05/08 13:32:30;;;;;;;;;;;;;;;;;;4718744;30;19972;-79
2022/05/08 13:34:56;;;;;;;;;;;;;;;;;;4707648;30;20423;-79
2022/05/08 13:37:21;;;;;;;;;;;;;;;;;;4705314;30;20763;-79
2022/05/08 13:39:47;;;;;;;;;;;;;;;;;;4706783;30;20996;-79
2022/05/08 13:42:18;;;;;;;;;;;;;;;;;;4698615;30;19930;-81
2022/05/08 13:44:44;;;;;;;;;;;;;;;;;;4718282;30;20387;-80
2022/05/08 13:47:10;;;;;;;;;;;;;;;;;;4713253;30;19957;-79
2022/05/08 13:49:36;;;;;;;;;;;;;;;;;;4732353;30;19926;-79
2022/05/08 13:52:02;;;;;;;;;;;;;;;;;;4699730;30;19934;-79
2022/05/08 13:54:28;;;;;;;;;;;;;;;;;;4716844;30;19930;-79
2022/05/08 13:56:59;;;;;;;;;;;;;;;;;;4702943;30;19954;-79
2022/05/08 13:59:28;;;;;;;;;;;;;;;;;;4712392;30;19942;-79
2022/05/08 14:01:54;;;;;;;;;;;;;;;;;;4703571;30;19932;-79
2022/05/08 14:04:20;;;;;;;;;;;;;;;;;;4698127;30;19929;-79
2022/05/08 14:06:46;;;;;;;;;;;;;;;;;;4727507;30;19926;-79
2022/05/08 14:09:15;;;;;;;;;;;;;;;;;;4710373;30;19941;-79
2022/05/08 14:11:41;;;;;;;;;;;;;;;;;;4697704;30;20346;-79
2022/05/08 14:14:08;;;;;;;;;;;;;;;;;;4726914;30;19934;-79
2022/05/08 14:16:35;;;;;;;;;;;;;;;;;;4728833;30;19946;-79
2022/05/08 14:19:01;;;;;;;;;;;;;;;;;;4727356;30;19937;-79
2022/05/08 14:21:27;;;;;;;;;;;;;;;;;;4713685;30;19941;-80
2022/05/08 14:23:54;;;;;;;;;;;;;;;;;;4723676;30;19934;-79
2022/05/08 14:26:20;;;;;;;;;;;;;;;;;;4705865;30;20374;-80
2022/05/08 14:28:46;;;;;;;;;;;;;;;;;;4695968;30;19937;-79
2022/05/08 14:36:45;;;;;;;;;;;;;;;;;;4713785;30;20329;-79
2022/05/08 14:39:11;;;;;;;;;;;;;;;;;;4707230;30;19930;-79
2022/05/08 14:41:37;;;;;;;;;;;;;;;;;;4713781;30;19934;-81
2022/05/08 14:44:03;;;;;;;;;;;;;;;;;;4692642;30;19945;-80
2022/05/08 14:46:29;;;;;;;;;;;;;;;;;;4700235;30;19930;-79
2022/05/08 14:48:55;;;;;;;;;;;;;;;;;;4717036;30;19977;-79
2022/05/08 14:51:21;;;;;;;;;;;;;;;;;;4709972;29;19980;-80
2022/05/08 14:53:47;;;;;;;;;;;;;;;;;;4695028;30;19926;-80
2022/05/08 14:56:13;;;;;;;;;;;;;;;;;;4723696;30;19941;-79
2022/05/08 14:58:39;;;;;;;;;;;;;;;;;;4729176;30;20401;-79
2022/05/08 15:01:05;;;;;;;;;;;;;;;;;;4725168;30;19930;-79
2022/05/08 15:03:31;;;;;;;;;;;;;;;;;;4727353;30;19937;-79
2022/05/08 15:05:57;;;;;;;;;;;;;;;;;;4712977;30;19934;-80
2022/05/08 15:08:23;;;;;;;;;;;;;;;;;;4724194;30;19940;-79
2022/05/08 15:10:49;;;;;;;;;;;;;;;;;;4709276;30;21682;-79
2022/05/08 15:13:15;;;;;;;;;;;;;;;;;;4720572;29;19934;-79
2022/05/08 15:15:41;;;;;;;;;;;;;;;;;;4709784;30;20318;-79
2022/05/08 15:20:54;;;;;;;;;;;;;;;;;;4705894;30;19931;-80
2022/05/08 15:23:20;;;;;;;;;;;;;;;;;;4720794;30;19970;-80
2022/05/08 15:25:46;;;;;;;;;;;;;;;;;;4708738;30;20486;-80
2022/05/08 15:28:12;;;;;;;;;;;;;;;;;;4715523;30;20431;-80
2022/05/08 15:30:39;;;;;;;;;;;;;;;;;;4696794;30;19941;-80
2022/05/08 15:33:05;;;;;;;;;;;;;;;;;;4701377;30;19926;-80
2022/05/08 15:35:31;;;;;;;;;;;;;;;;;;4705351;30;19977;-80
2022/05/08 15:37:57;;;;;;;;;;;;;;;;;;4694081;30;20252;-83
2022/05/08 15:40:23;;;;;;;;;;;;;;;;;;4687519;30;20062;-82
2022/05/08 15:42:49;;;;;;;;;;;;;;;;;;4693810;30;19934;-81
2022/05/08 15:45:16;;;;;;;;;;;;;;;;;;4724053;30;19962;-81
2022/05/08 15:47:41;;;;;;;;;;;;;;;;;;4727229;30;20318;-81
2022/05/08 15:50:07;;;;;;;;;;;;;;;;;;4721434;30;19930;-81
2022/05/08 15:52:33;;;;;;;;;;;;;;;;;;4724285;30;20443;-81
2022/05/08 15:54:59;;;;;;;;;;;;;;;;;;4723558;30;19934;-80
2022/05/08 15:57:25;;;;;;;;;;;;;;;;;;4702648;30;19930;-80
2022/05/08 15:59:51;;;;;;;;;;;;;;;;;;4719436;30;19981;-80
2022/05/08 16:02:17;;;;;;;;;;;;;;;;;;4720313;30;19957;-80
2022/05/08 16:04:45;;;;;;;;;;;;;;;;;;4727167;30;20374;-80
2022/05/08 16:07:11;;;;;;;;;;;;;;;;;;4721741;30;20283;-80
2022/05/08 16:09:38;;;;;;;;;;;;;;;;;;4706200;30;19956;-80
2022/05/08 16:12:05;;;;;;;;;;;;;;;;;;4691467;30;19937;-80
2022/05/08 16:25:42;;;;;;;;;;;;;;;;;;4711250;30;20041;-80
2022/05/08 16:28:08;;;;;;;;;;;;;;;;;;4718764;30;19942;-79
2022/05/08 16:30:34;;;;;;;;;;;;;;;;;;4708391;30;19940;-80
2022/05/08 16:33:00;;;;;;;;;;;;;;;;;;4722648;30;19930;-80
2022/05/08 16:35:26;;;;;;;;;;;;;;;;;;4707638;30;20364;-80
2022/05/08 16:37:55;;;;;;;;;;;;;;;;;;4696764;30;20003;-80
2022/05/08 16:40:22;;;;;;;;;;;;;;;;;;4698315;30;19942;-80
2022/05/08 16:42:49;;;;;;;;;;;;;;;;;;4706035;30;19941;-80
2022/05/08 16:45:15;;;;;;;;;;;;;;;;;;4705443;30;19934;-79
2022/05/08 16:47:41;;;;;;;;;;;;;;;;;;4720300;30;19934;-80
2022/05/08 16:50:07;;;;;;;;;;;;;;;;;;4709748;30;20011;-80
2022/05/08 16:52:33;;;;;;;;;;;;;;;;;;4724528;30;19934;-81
2022/05/08 16:54:59;;;;;;;;;;;;;;;;;;4710150;30;19941;-80
2022/05/08 16:57:25;;;;;;;;;;;;;;;;;;4713370;30;19945;-82
2022/05/08 16:59:51;;;;;;;;;;;;;;;;;;4696938;30;19933;-81
2022/05/08 17:02:23;;;;;;;;;;;;;;;;;;4705552;30;19934;-81
2022/05/08 17:04:50;;;;;;;;;;;;;;;;;;4713470;30;20553;-81
2022/05/08 17:07:18;;;;;;;;;;;;;;;;;;4710340;30;20406;-80
2022/05/08 17:09:44;;;;;;;;;;;;;;;;;;4710403;30;19930;-80
2022/05/08 17:12:10;;;;;;;;;;;;;;;;;;4690603;30;20031;-80
2022/05/08 17:14:36;;;;;;;;;;;;;;;;;;4712236;30;19934;-80
2022/05/08 17:17:02;;;;;;;;;;;;;;;;;;4714317;30;19942;-80
2022/05/08 17:19:28;;;;;;;;;;;;;;;;;;4715152;30;19926;-80
2022/05/08 17:21:54;;;;;;;;;;;;;;;;;;4712186;30;19935;-80
2022/05/08 17:24:21;;;;;;;;;;;;;;;;;;4699628;30;20287;-80
2022/05/08 17:29:32;;;;;;;;;;;;;;;;;;4709678;30;20410;-80
2022/05/08 17:31:58;;;;;;;;;;;;;;;;;;4706804;30;19934;-80
2022/05/08 17:34:24;;;;;;;;;;;;;;;;;;4719725;30;20023;-80